Heinz Schepers — V2OM7 — position and weather

sailwx.info

Track history (hours):
 
Tides and Currents Weather Stations Pressure Air Temp Water Temp Dewpoint Dewpoint Depression Visibility Wind Speed Wind Dir Waves Ship Positions

Heinz Schepers

Last reported at 2015-Jan-31 06:18 UTC. Time now 2015-Feb-01 08:47 UTC.
Position N 40°37' E 022°56'.

Length 101 m; draft 5.1 m.

Type: Cargo ship. MMSI: 304596000.

Date/timePositionNaut miles runAvg speedWind from/ knotsBaromVisibWave heightAir tempDewpointWater temp
2015-Jan-31 06:18N 40°37' E 022°56'0 0.0
2015-Jan-31 03:12N 40°37' E 022°56'  
2015-Jan-28 00:09N 34°52' E 031°56'2012.4
2015-Jan-27 22:32N 34°42' E 032°18'1414.3
2015-Jan-27 21:33N 34°37' E 032°34'1414.1
2015-Jan-27 20:34N 34°33' E 032°50'1111.5
2015-Jan-27 19:33N 34°35' E 033°04'4 4.2
2015-Jan-27 18:34N 34°39' E 033°01'0 0.0
2015-Jan-27 17:34N 34°39' E 033°01'0 0.0
2015-Jan-27 16:34N 34°39' E 033°01'0 0.0
2015-Jan-27 15:34N 34°39' E 033°01'0 0.0
2015-Jan-27 14:34N 34°39' E 033°01'0 0.0
2015-Jan-27 13:34N 34°39' E 033°01'0 0.0
2015-Jan-27 12:34N 34°39' E 033°01'0 0.0
2015-Jan-27 11:34N 34°39' E 033°01'0 0.0
2015-Jan-27 10:34N 34°39' E 033°01'0 0.0
2015-Jan-27 09:33N 34°39' E 033°01'0 0.0
2015-Jan-27 08:34N 34°39' E 033°01'0 0.0
2015-Jan-27 07:34N 34°39' E 033°01'0 0.0
2015-Jan-27 06:33N 34°39' E 033°01'0 0.0
2015-Jan-27 05:34N 34°39' E 033°01'0 0.0
2015-Jan-27 04:34N 34°39' E 033°01'2 1.7
2015-Jan-27 03:31N 34°40' E 033°03'0 0.1
2015-Jan-27 02:31N 34°40' E 033°03'0 0.0
2015-Jan-27 01:31N 34°40' E 033°03'0 0.0
2015-Jan-27 00:31N 34°40' E 033°03'0 0.0
2015-Jan-26 23:34N 34°40' E 033°03'0 0.0
2015-Jan-26 22:34N 34°40' E 033°03'9 8.7
2015-Jan-26 21:33N 34°31' E 032°60'1413.5
2015-Jan-26 20:33N 34°35' E 032°44'1313.5
2015-Jan-26 19:33N 34°38' E 032°28'  
2015-Jan-24 14:18N 40°33' E 022°51'  
Track history (hours):
 
Tides and Currents Weather Stations Pressure Air Temp Water Temp Dewpoint Dewpoint Depression Visibility Wind Speed Wind Dir Waves Ship Positions

Heinz Schepers

Last reported at 2015-Jan-31 06:18 UTC. Time now 2015-Feb-01 08:47 UTC.
Position N 40°37' E 022°56'.

Length 101 m; draft 5.1 m.

Type: Cargo ship. MMSI: 304596000.

Date/timePositionNaut miles runAvg speedWind from/ knotsBaromVisibWave heightAir tempDewpointWater temp
2015-Jan-31 06:18N 40°37' E 022°56'0 0.0
2015-Jan-31 03:12N 40°37' E 022°56'  
2015-Jan-28 00:09N 34°52' E 031°56'2012.4
2015-Jan-27 22:32N 34°42' E 032°18'1414.3
2015-Jan-27 21:33N 34°37' E 032°34'1414.1
2015-Jan-27 20:34N 34°33' E 032°50'1111.5
2015-Jan-27 19:33N 34°35' E 033°04'4 4.2
2015-Jan-27 18:34N 34°39' E 033°01'0 0.0
2015-Jan-27 17:34N 34°39' E 033°01'0 0.0
2015-Jan-27 16:34N 34°39' E 033°01'0 0.0
2015-Jan-27 15:34N 34°39' E 033°01'0 0.0
2015-Jan-27 14:34N 34°39' E 033°01'0 0.0
2015-Jan-27 13:34N 34°39' E 033°01'0 0.0
2015-Jan-27 12:34N 34°39' E 033°01'0 0.0
2015-Jan-27 11:34N 34°39' E 033°01'0 0.0
2015-Jan-27 10:34N 34°39' E 033°01'0 0.0
2015-Jan-27 09:33N 34°39' E 033°01'0 0.0
2015-Jan-27 08:34N 34°39' E 033°01'0 0.0
2015-Jan-27 07:34N 34°39' E 033°01'0 0.0
2015-Jan-27 06:33N 34°39' E 033°01'0 0.0
2015-Jan-27 05:34N 34°39' E 033°01'0 0.0
2015-Jan-27 04:34N 34°39' E 033°01'2 1.7
2015-Jan-27 03:31N 34°40' E 033°03'0 0.1
2015-Jan-27 02:31N 34°40' E 033°03'0 0.0
2015-Jan-27 01:31N 34°40' E 033°03'0 0.0
2015-Jan-27 00:31N 34°40' E 033°03'0 0.0
2015-Jan-26 23:34N 34°40' E 033°03'0 0.0
2015-Jan-26 22:34N 34°40' E 033°03'9 8.7
2015-Jan-26 21:33N 34°31' E 032°60'1413.5
2015-Jan-26 20:33N 34°35' E 032°44'1313.5
2015-Jan-26 19:33N 34°38' E 032°28'  
2015-Jan-24 14:18N 40°33' E 022°51'  

Dump ship's entire track history